Terminal Aerodrome Forecast
Issued by NWS

Home | Current Version | Previous Version | Graphics & Text | Print | Product List | Glossary On
Versions: 1 2 3 4 5 6 7 8 9 10 11 12 13 14 15 16 17 18 19 20 21 22 23 24
000
FTUS45 KGGW 172300
TAFOLF
TAF
KOLF 172320Z 1800/1824 11008KT P6SM SCT140
     FM181200 VRB04KT 6SM BR SCT025 SCT140
     FM181500 VRB03KT P6SM SCT140
     FM181800 22008KT P6SM BKN130=

USA.gov is the U.S. government's official web portal to all federal, state and local government web resources and services.